| Date | Time | Temp. (oF) | Dew Point (oF) | Rel. Hum. (%) | Press. (in.) | Wind Dir. | Wind Speed (mph) | Hourly Rainfall (in.) |
|
|---|---|---|---|---|---|---|---|---|---|
| 1 | 06/23 | 00:00 | 65 | 63 | 96 | 29.84 | SSW | 0 | 0.00 |
| 2 | 06/22 | 23:00 | 67 | 64 | 91 | 29.85 | S | 0 | 0.00 |
| 3 | 06/22 | 22:00 | 69 | 64 | 87 | 29.84 | S | 0 | 0.00 |
| 4 | 06/22 | 21:00 | 71 | 65 | 83 | 29.82 | SSW | 0 | 0.00 |
| 5 | 06/22 | 20:00 | 73 | 65 | 78 | 29.82 | W | 1 | 0.00 |
| 6 | 06/22 | 19:00 | 73 | 63 | 73 | 29.81 | WNW | 0 | 0.00 |
| 7 | 06/22 | 18:00 | 73 | 62 | 70 | 29.81 | WNW | 2 | 0.00 |
| 8 | 06/22 | 17:00 | 73 | 63 | 73 | 29.81 | WSW | 5 | 0.00 |
| 9 | 06/22 | 16:00 | 71 | 61 | 73 | 29.83 | NNW | 2 | 0.00 |
| 10 | 06/22 | 15:00 | 72 | 61 | 70 | 29.83 | NNW | 5 | 0.00 |
| 11 | 06/22 | 14:00 | 71 | 62 | 74 | 29.84 | W | 6 | 0.00 |
| 12 | 06/22 | 13:00 | 68 | 60 | 78 | 29.85 | NNW | 8 | 0.00 |
| 13 | 06/22 | 12:00 | 67 | 63 | 90 | 29.85 | NNW | 7 | 0.00 |
| 14 | 06/22 | 11:00 | 62 | 62 | 100 | 29.87 | NW | 11 | 0.03 |
| 15 | 06/22 | 10:00 | 61 | 60 | 97 | 29.88 | WNW | 4 | 0.01 |
| 16 | 06/22 | 09:00 | 61 | 60 | 100 | 29.87 | WSW | 0 | 0.00 |
| 17 | 06/22 | 08:00 | 60 | 59 | 100 | 29.87 | N | 6 | 0.00 |
| 18 | 06/22 | 07:00 | 58 | 58 | 100 | 29.86 | WNW | 5 | 0.00 |
| 19 | 06/22 | 06:00 | 57 | 57 | 100 | 29.85 | WNW | 2 | 0.01 |
| 20 | 06/22 | 05:00 | 57 | 57 | 100 | 29.85 | NW | 1 | 0.02 |
| 21 | 06/22 | 04:00 | 58 | 56 | 96 | 29.84 | WNW | 1 | 0.09 |
| 22 | 06/22 | 03:00 | 59 | 57 | 94 | 29.84 | W | 0 | 0.00 |
| 23 | 06/22 | 02:00 | 59 | 57 | 94 | 29.83 | WNW | 4 | 0.00 |
| 24 | 06/22 | 01:00 | 59 | 56 | 93 | 29.84 | NNW | 0 | 0.00 |